< < Back
Terminal Aerodrome Forecast


Current Version              Previous Versions:   1  2  3  4  5  6  7  8  9  

Terminal Aerodrome Forecast

060
FTUS42 KCHS 301857 AAB
TAFCHS
TAF AMD
KCHS 301857Z 3019/0118 15012G17KT P6SM SCT035 BKN250
      TEMPO 3019/3020 BKN030
     FM302330 14009KT P6SM FEW040 BKN250
     FM010600 14005KT P6SM SCT009 BKN015
     FM011400 18009KT P6SM SCT015 BKN035=

Latest METAR

429
SAUS80 KWBC 302300 RRA
MTRCHS
METAR KCHS 302256Z 13009KT 10SM FEW019 BKN250 26/20 A3003 RMK AO2 SLP168
T02560200


USA.gov is the U.S. government's official web portal to all federal, state and local government web resources and services.